Lucy Reinauer — WCX8054 — position and weather

sailwx.info

Track history (hours):
 
Tides and Currents Weather Stations Pressure Air Temp Water Temp Dewpoint Dewpoint Depression Visibility Wind Speed Wind Dir Waves Ship Positions

Lucy Reinauer

Owner: REINAUER TRANSPORTATION CO. LLC, STATEN ISLAND, NY. More information available from US FCC via Universal Licensing System and Coast Guard Vessel Documentation Center.

Last reported at 2017-Nov-23 05:30 UTC. Time now 2017-Nov-23 05:37 UTC.
Position N 40°39' W 074°07'.

Length 142 m; draft 6.6 m.

Type: . MMSI: 366926920.

Date/timePositionNaut miles runAvg speedWind from/ knotsBaromVisibWave heightAir tempDewpointWater temp
2017-Nov-23 05:30N 40°39' W 074°07'0 0.0
2017-Nov-23 05:00N 40°39' W 074°07'0 0.0
2017-Nov-23 04:30N 40°39' W 074°07'0 0.0
2017-Nov-23 04:00N 40°39' W 074°07'0 0.0
2017-Nov-23 03:30N 40°39' W 074°07'0 0.0
2017-Nov-23 03:00N 40°39' W 074°07'0 0.0
2017-Nov-23 02:30N 40°39' W 074°07'0 0.0
2017-Nov-23 02:00N 40°39' W 074°07'0 0.0
2017-Nov-23 01:30N 40°39' W 074°07'1 1.9
2017-Nov-23 01:00N 40°38' W 074°08'0 0.0
2017-Nov-23 00:30N 40°38' W 074°08'0 0.0
2017-Nov-23 00:00N 40°38' W 074°08'0 0.0
2017-Nov-22 23:30N 40°38' W 074°08'1 2.0
2017-Nov-22 23:00N 40°39' W 074°07'0 0.0
2017-Nov-22 22:30N 40°39' W 074°07'0 0.7
2017-Nov-22 22:00N 40°39' W 074°06'1 2.4
2017-Nov-22 21:30N 40°39' W 074°05'3 5.2
2017-Nov-22 21:00N 40°41' W 074°02'4 8.6
2017-Nov-22 20:30N 40°44' W 073°58'5 9.8
2017-Nov-22 20:00N 40°48' W 073°54'5 9.5
2017-Nov-22 19:30N 40°48' W 073°48'  
2017-Nov-20 00:29N 40°40' W 074°02'0 0.1
2017-Nov-19 23:59N 40°40' W 074°02'0 0.0
2017-Nov-19 23:29N 40°40' W 074°02'0 0.0
2017-Nov-19 22:59N 40°40' W 074°02'0 0.0
2017-Nov-19 22:29N 40°40' W 074°02'0 0.1
2017-Nov-19 21:59N 40°40' W 074°02'0 0.1
2017-Nov-19 21:29N 40°40' W 074°02'0 0.0
2017-Nov-19 20:59N 40°40' W 074°02'0 0.1
2017-Nov-19 20:29N 40°40' W 074°02'0 0.1
2017-Nov-19 19:59N 40°40' W 074°02'0 0.1
2017-Nov-19 19:29N 40°40' W 074°02'0 0.0
2017-Nov-19 18:59N 40°40' W 074°02'0 0.0
2017-Nov-19 18:29N 40°40' W 074°02'0 0.0
2017-Nov-19 17:59N 40°40' W 074°02'0 0.1
2017-Nov-19 17:29N 40°40' W 074°02'0 0.1
2017-Nov-19 16:56N 40°40' W 074°02'0 0.1
2017-Nov-19 16:29N 40°40' W 074°02'0 0.1
2017-Nov-19 15:59N 40°40' W 074°02'0 0.2
2017-Nov-19 15:29N 40°40' W 074°02'0 0.2
2017-Nov-19 14:59N 40°40' W 074°02'0 0.1
2017-Nov-19 14:29N 40°40' W 074°02'0 0.1
2017-Nov-19 13:59N 40°40' W 074°02'0 0.0
2017-Nov-19 13:29N 40°40' W 074°02'0 0.0
2017-Nov-19 12:59N 40°40' W 074°02'0 0.1
2017-Nov-19 12:29N 40°40' W 074°02'0 0.1
2017-Nov-19 11:59N 40°40' W 074°02'0 0.0
2017-Nov-19 11:29N 40°40' W 074°02'0 0.0
2017-Nov-19 10:59N 40°40' W 074°02'0 0.1
2017-Nov-19 10:29N 40°40' W 074°02'0 0.1
2017-Nov-19 09:59N 40°40' W 074°02'0 0.1
2017-Nov-19 09:29N 40°40' W 074°02'0 0.2
2017-Nov-19 08:59N 40°40' W 074°02'0 0.3
2017-Nov-19 08:29N 40°40' W 074°02'0 0.1
2017-Nov-19 07:59N 40°40' W 074°02'0 0.1
2017-Nov-19 07:29N 40°40' W 074°02'0 0.1
2017-Nov-19 06:59N 40°40' W 074°02'0 0.1
2017-Nov-19 06:29N 40°40' W 074°02'0 0.1
2017-Nov-19 05:59N 40°40' W 074°02'0 0.1
2017-Nov-19 05:29N 40°40' W 074°02'0 0.1
2017-Nov-19 04:59N 40°40' W 074°02'0 0.2
2017-Nov-19 04:29N 40°40' W 074°02'0 0.1
2017-Nov-19 03:59N 40°40' W 074°02'0 0.1
2017-Nov-19 03:29N 40°40' W 074°02'0 0.0
2017-Nov-19 02:59N 40°40' W 074°02'0 0.1
2017-Nov-19 02:29N 40°40' W 074°02'0 0.0
2017-Nov-19 01:59N 40°40' W 074°02'0 0.1
2017-Nov-19 01:29N 40°40' W 074°02'0 0.0
2017-Nov-19 00:59N 40°40' W 074°02'0 0.0
2017-Nov-19 00:29N 40°40' W 074°02'0 0.0
2017-Nov-18 23:59N 40°40' W 074°02'0 0.2
2017-Nov-18 23:29N 40°40' W 074°02'0 0.1
2017-Nov-18 22:59N 40°40' W 074°02'0 0.1
2017-Nov-18 22:29N 40°40' W 074°02'0 0.1
2017-Nov-18 21:59N 40°40' W 074°02'0 0.1
2017-Nov-18 21:29N 40°40' W 074°02'0 0.1
2017-Nov-18 20:59N 40°40' W 074°02'0 0.1
2017-Nov-18 20:29N 40°40' W 074°02'0 0.0
2017-Nov-18 19:59N 40°40' W 074°02'0 0.0
2017-Nov-18 19:29N 40°40' W 074°02'0 0.1
2017-Nov-18 18:59N 40°40' W 074°02'0 0.0
2017-Nov-18 18:29N 40°40' W 074°02'0 0.0
2017-Nov-18 17:59N 40°40' W 074°02'0 0.1
2017-Nov-18 17:29N 40°40' W 074°02'0 0.2
2017-Nov-18 16:59N 40°40' W 074°02'0 0.3
2017-Nov-18 16:29N 40°40' W 074°02'0 0.2
2017-Nov-18 15:59N 40°40' W 074°02'0 0.0
2017-Nov-18 15:29N 40°40' W 074°02'0 0.1
2017-Nov-18 14:59N 40°40' W 074°02'0 0.0
2017-Nov-18 14:29N 40°40' W 074°02'0 0.1
2017-Nov-18 13:59N 40°40' W 074°02'0 0.0
2017-Nov-18 13:29N 40°40' W 074°02'0 0.0
2017-Nov-18 12:59N 40°40' W 074°02'0 0.0
2017-Nov-18 12:29N 40°40' W 074°02'0 0.0
2017-Nov-18 11:59N 40°40' W 074°02'0 0.0
2017-Nov-18 11:29N 40°40' W 074°02'0 0.1
2017-Nov-18 10:59N 40°40' W 074°02'0 0.1
2017-Nov-18 10:29N 40°40' W 074°02'0 0.3
2017-Nov-18 09:59N 40°40' W 074°02'0 0.1
2017-Nov-18 09:29N 40°40' W 074°02'0 0.0
2017-Nov-18 08:59N 40°40' W 074°02'0 0.1
2017-Nov-18 08:29N 40°40' W 074°02'0 0.1
2017-Nov-18 07:59N 40°40' W 074°02'0 0.0
2017-Nov-18 07:29N 40°40' W 074°02'0 0.0
2017-Nov-18 06:59N 40°40' W 074°02'0 0.0
2017-Nov-18 06:29N 40°40' W 074°02'0 0.0
2017-Nov-18 05:59N 40°40' W 074°02'0 0.0
2017-Nov-18 05:29N 40°40' W 074°02'0 0.1
2017-Nov-18 04:59N 40°40' W 074°02'0 0.1
2017-Nov-18 04:29N 40°40' W 074°02'0 0.0
2017-Nov-18 03:59N 40°40' W 074°02'0 0.2
2017-Nov-18 03:29N 40°40' W 074°02'0 0.1
2017-Nov-18 02:59N 40°40' W 074°02'0 0.1
2017-Nov-18 02:29N 40°40' W 074°02'0 0.1
2017-Nov-18 01:59N 40°40' W 074°02'0 0.0
2017-Nov-18 01:29N 40°40' W 074°02'0 0.0
2017-Nov-18 00:59N 40°40' W 074°02'0 0.1
2017-Nov-18 00:29N 40°40' W 074°02'0 0.0
2017-Nov-17 23:59N 40°40' W 074°02'0 0.1
2017-Nov-17 23:29N 40°40' W 074°02'0 0.0
2017-Nov-17 22:59N 40°40' W 074°02'0 0.2
2017-Nov-17 22:29N 40°40' W 074°02'0 0.1
2017-Nov-17 21:59N 40°40' W 074°02'0 0.0
2017-Nov-17 21:29N 40°40' W 074°02'0 0.0
2017-Nov-17 20:59N 40°40' W 074°02'0 0.0
2017-Nov-17 20:29N 40°40' W 074°02'0 0.1
2017-Nov-17 19:59N 40°40' W 074°02'0 0.0
2017-Nov-17 19:29N 40°40' W 074°02'0 0.0
2017-Nov-17 18:59N 40°40' W 074°02'0 0.0
2017-Nov-17 18:29N 40°40' W 074°02'0 0.0
2017-Nov-17 17:59N 40°40' W 074°02'0 0.0
2017-Nov-17 17:29N 40°40' W 074°02'0 0.0
2017-Nov-17 16:59N 40°40' W 074°02'0 0.0
2017-Nov-17 16:29N 40°40' W 074°02'0 0.0
2017-Nov-17 15:59N 40°40' W 074°02'0 0.1
2017-Nov-17 15:29N 40°40' W 074°02'0 0.0
2017-Nov-17 14:59N 40°40' W 074°02'0 0.1
2017-Nov-17 14:29N 40°40' W 074°02'0 0.1
2017-Nov-17 13:59N 40°40' W 074°02'0 0.0
2017-Nov-17 13:29N 40°40' W 074°02'0 0.0
2017-Nov-17 12:59N 40°40' W 074°02'0 0.1
2017-Nov-17 12:29N 40°40' W 074°02'0 0.0
2017-Nov-17 11:59N 40°40' W 074°02'0 0.1
2017-Nov-17 11:29N 40°40' W 074°02'0 0.1
2017-Nov-17 10:59N 40°40' W 074°02'0 0.1
2017-Nov-17 10:30N 40°40' W 074°02'0 0.0
2017-Nov-17 10:00N 40°40' W 074°02'0 0.1
2017-Nov-17 09:30N 40°40' W 074°02'0 0.0
2017-Nov-17 09:00N 40°40' W 074°02'0 0.1
2017-Nov-17 08:30N 40°40' W 074°02'0 0.0
2017-Nov-17 08:00N 40°40' W 074°02'0 0.1
2017-Nov-17 07:30N 40°40' W 074°02'0 0.0
2017-Nov-17 07:00N 40°40' W 074°02'0 0.1
2017-Nov-17 06:30N 40°40' W 074°02'1 1.5
2017-Nov-17 06:00N 40°41' W 074°02'5 9.3
2017-Nov-17 05:30N 40°44' W 073°58'510.3
2017-Nov-17 05:00N 40°48' W 073°53'5 9.6
2017-Nov-17 04:30N 40°48' W 073°47'5 9.4
2017-Nov-17 03:58N 40°53' W 073°44'1 0.0
2017-Nov-15 20:02N 40°52' W 073°44'1 9.2
2017-Nov-15 19:56N 40°51' W 073°45'4 8.6
2017-Nov-15 19:30N 40°48' W 073°47'5 8.8
2017-Nov-15 18:59N 40°48' W 073°53'3 7.1
2017-Nov-15 18:30N 40°46' W 073°57'3 6.9
2017-Nov-15 18:00N 40°43' W 073°58'3 6.3
2017-Nov-15 17:30N 40°41' W 074°01'3 6.3
2017-Nov-15 17:00N 40°39' W 074°05'1 2.4
2017-Nov-15 16:29N 40°39' W 074°07'1 2.0
2017-Nov-15 15:59N 40°38' W 074°08'1 1.9
2017-Nov-15 15:29N 40°39' W 074°07'0 0.0
2017-Nov-15 14:59N 40°39' W 074°07'0 0.0
2017-Nov-15 14:26N 40°39' W 074°07'0 0.0
2017-Nov-15 13:59N 40°39' W 074°07'0 0.0
2017-Nov-15 13:29N 40°39' W 074°07'0 0.0
2017-Nov-15 12:59N 40°39' W 074°07'0 0.0
2017-Nov-15 12:29N 40°39' W 074°07'0 0.0
2017-Nov-15 11:59N 40°39' W 074°07'0 0.0
2017-Nov-15 11:29N 40°39' W 074°07'0 0.0
2017-Nov-15 10:59N 40°39' W 074°07'0 0.0
2017-Nov-15 10:29N 40°39' W 074°07'0 0.0
2017-Nov-15 09:59N 40°39' W 074°07'0 0.0
2017-Nov-15 09:26N 40°39' W 074°07'0 0.0
2017-Nov-15 08:59N 40°39' W 074°07'0 0.0
2017-Nov-15 08:29N 40°39' W 074°07'0 0.0
2017-Nov-15 07:59N 40°39' W 074°07'0 0.0
2017-Nov-15 07:29N 40°39' W 074°07'0 0.0
2017-Nov-15 06:59N 40°39' W 074°07'0 0.0
2017-Nov-15 06:29N 40°39' W 074°07'0 0.0
2017-Nov-15 05:59N 40°39' W 074°07'0 0.0
2017-Nov-15 05:29N 40°39' W 074°07'0 0.0
2017-Nov-15 04:59N 40°39' W 074°07'0 0.0
2017-Nov-15 04:29N 40°39' W 074°07'0 0.0
2017-Nov-15 03:59N 40°39' W 074°07'0 0.0
2017-Nov-15 03:29N 40°39' W 074°07'0 0.0
2017-Nov-15 02:59N 40°39' W 074°07'0 0.0
2017-Nov-15 02:29N 40°39' W 074°07'0 0.0
2017-Nov-15 01:59N 40°39' W 074°07'0 0.0
2017-Nov-15 01:26N 40°39' W 074°07'0 0.0
2017-Nov-15 00:59N 40°39' W 074°07'0 0.1
2017-Nov-15 00:29N 40°39' W 074°07'0 0.0
2017-Nov-14 23:59N 40°39' W 074°07'0 0.1
2017-Nov-14 23:17N 40°39' W 074°07'0 0.0
2017-Nov-14 22:59N 40°39' W 074°07'0 0.0
2017-Nov-14 22:23N 40°39' W 074°07'0 0.0
2017-Nov-14 21:56N 40°39' W 074°07'0 0.0
2017-Nov-14 21:29N 40°39' W 074°07'0 0.0
2017-Nov-14 20:56N 40°39' W 074°07'1 2.2
2017-Nov-14 20:28N 40°38' W 074°08'0 0.0
2017-Nov-14 19:59N 40°38' W 074°08'0 0.0
2017-Nov-14 19:30N 40°38' W 074°08'0 0.0
2017-Nov-14 19:00N 40°38' W 074°08'0 0.0
2017-Nov-14 18:30N 40°38' W 074°08'0 0.0
2017-Nov-14 17:59N 40°38' W 074°08'0 0.0
2017-Nov-14 17:30N 40°38' W 074°08'0 0.0
2017-Nov-14 17:00N 40°38' W 074°08'1 2.0
2017-Nov-14 16:30N 40°39' W 074°07'1 2.0
2017-Nov-14 16:00N 40°39' W 074°05'2 3.3
2017-Nov-14 15:30N 40°38' W 074°03'1 1.5
2017-Nov-14 15:00N 40°39' W 074°02'2 4.8
2017-Nov-14 14:30N 40°41' W 074°01'510.1
2017-Nov-14 14:00N 40°45' W 073°58'5 9.5
2017-Nov-14 13:30N 40°48' W 073°52'4 8.9
2017-Nov-14 13:00N 40°49' W 073°47'5 9.6
2017-Nov-14 12:26N 40°53' W 073°43'  
Track history (hours):
 
Tides and Currents Weather Stations Pressure Air Temp Water Temp Dewpoint Dewpoint Depression Visibility Wind Speed Wind Dir Waves Ship Positions

Lucy Reinauer

Owner: REINAUER TRANSPORTATION CO. LLC, STATEN ISLAND, NY. More information available from US FCC via Universal Licensing System and Coast Guard Vessel Documentation Center.

Last reported at 2017-Nov-23 05:30 UTC. Time now 2017-Nov-23 05:37 UTC.
Position N 40°39' W 074°07'.

Length 142 m; draft 6.6 m.

Type: . MMSI: 366926920.

Date/timePositionNaut miles runAvg speedWind from/ knotsBaromVisibWave heightAir tempDewpointWater temp
2017-Nov-23 05:30N 40°39' W 074°07'0 0.0
2017-Nov-23 05:00N 40°39' W 074°07'0 0.0
2017-Nov-23 04:30N 40°39' W 074°07'0 0.0
2017-Nov-23 04:00N 40°39' W 074°07'0 0.0
2017-Nov-23 03:30N 40°39' W 074°07'0 0.0
2017-Nov-23 03:00N 40°39' W 074°07'0 0.0
2017-Nov-23 02:30N 40°39' W 074°07'0 0.0
2017-Nov-23 02:00N 40°39' W 074°07'0 0.0
2017-Nov-23 01:30N 40°39' W 074°07'1 1.9
2017-Nov-23 01:00N 40°38' W 074°08'0 0.0
2017-Nov-23 00:30N 40°38' W 074°08'0 0.0
2017-Nov-23 00:00N 40°38' W 074°08'0 0.0
2017-Nov-22 23:30N 40°38' W 074°08'1 2.0
2017-Nov-22 23:00N 40°39' W 074°07'0 0.0
2017-Nov-22 22:30N 40°39' W 074°07'0 0.7
2017-Nov-22 22:00N 40°39' W 074°06'1 2.4
2017-Nov-22 21:30N 40°39' W 074°05'3 5.2
2017-Nov-22 21:00N 40°41' W 074°02'4 8.6
2017-Nov-22 20:30N 40°44' W 073°58'5 9.8
2017-Nov-22 20:00N 40°48' W 073°54'5 9.5
2017-Nov-22 19:30N 40°48' W 073°48'  
2017-Nov-20 00:29N 40°40' W 074°02'0 0.1
2017-Nov-19 23:59N 40°40' W 074°02'0 0.0
2017-Nov-19 23:29N 40°40' W 074°02'0 0.0
2017-Nov-19 22:59N 40°40' W 074°02'0 0.0
2017-Nov-19 22:29N 40°40' W 074°02'0 0.1
2017-Nov-19 21:59N 40°40' W 074°02'0 0.1
2017-Nov-19 21:29N 40°40' W 074°02'0 0.0
2017-Nov-19 20:59N 40°40' W 074°02'0 0.1
2017-Nov-19 20:29N 40°40' W 074°02'0 0.1
2017-Nov-19 19:59N 40°40' W 074°02'0 0.1
2017-Nov-19 19:29N 40°40' W 074°02'0 0.0
2017-Nov-19 18:59N 40°40' W 074°02'0 0.0
2017-Nov-19 18:29N 40°40' W 074°02'0 0.0
2017-Nov-19 17:59N 40°40' W 074°02'0 0.1
2017-Nov-19 17:29N 40°40' W 074°02'0 0.1
2017-Nov-19 16:56N 40°40' W 074°02'0 0.1
2017-Nov-19 16:29N 40°40' W 074°02'0 0.1
2017-Nov-19 15:59N 40°40' W 074°02'0 0.2
2017-Nov-19 15:29N 40°40' W 074°02'0 0.2
2017-Nov-19 14:59N 40°40' W 074°02'0 0.1
2017-Nov-19 14:29N 40°40' W 074°02'0 0.1
2017-Nov-19 13:59N 40°40' W 074°02'0 0.0
2017-Nov-19 13:29N 40°40' W 074°02'0 0.0
2017-Nov-19 12:59N 40°40' W 074°02'0 0.1
2017-Nov-19 12:29N 40°40' W 074°02'0 0.1
2017-Nov-19 11:59N 40°40' W 074°02'0 0.0
2017-Nov-19 11:29N 40°40' W 074°02'0 0.0
2017-Nov-19 10:59N 40°40' W 074°02'0 0.1
2017-Nov-19 10:29N 40°40' W 074°02'0 0.1
2017-Nov-19 09:59N 40°40' W 074°02'0 0.1
2017-Nov-19 09:29N 40°40' W 074°02'0 0.2
2017-Nov-19 08:59N 40°40' W 074°02'0 0.3
2017-Nov-19 08:29N 40°40' W 074°02'0 0.1
2017-Nov-19 07:59N 40°40' W 074°02'0 0.1
2017-Nov-19 07:29N 40°40' W 074°02'0 0.1
2017-Nov-19 06:59N 40°40' W 074°02'0 0.1
2017-Nov-19 06:29N 40°40' W 074°02'0 0.1
2017-Nov-19 05:59N 40°40' W 074°02'0 0.1
2017-Nov-19 05:29N 40°40' W 074°02'0 0.1
2017-Nov-19 04:59N 40°40' W 074°02'0 0.2
2017-Nov-19 04:29N 40°40' W 074°02'0 0.1
2017-Nov-19 03:59N 40°40' W 074°02'0 0.1
2017-Nov-19 03:29N 40°40' W 074°02'0 0.0
2017-Nov-19 02:59N 40°40' W 074°02'0 0.1
2017-Nov-19 02:29N 40°40' W 074°02'0 0.0
2017-Nov-19 01:59N 40°40' W 074°02'0 0.1
2017-Nov-19 01:29N 40°40' W 074°02'0 0.0
2017-Nov-19 00:59N 40°40' W 074°02'0 0.0
2017-Nov-19 00:29N 40°40' W 074°02'0 0.0
2017-Nov-18 23:59N 40°40' W 074°02'0 0.2
2017-Nov-18 23:29N 40°40' W 074°02'0 0.1
2017-Nov-18 22:59N 40°40' W 074°02'0 0.1
2017-Nov-18 22:29N 40°40' W 074°02'0 0.1
2017-Nov-18 21:59N 40°40' W 074°02'0 0.1
2017-Nov-18 21:29N 40°40' W 074°02'0 0.1
2017-Nov-18 20:59N 40°40' W 074°02'0 0.1
2017-Nov-18 20:29N 40°40' W 074°02'0 0.0
2017-Nov-18 19:59N 40°40' W 074°02'0 0.0
2017-Nov-18 19:29N 40°40' W 074°02'0 0.1
2017-Nov-18 18:59N 40°40' W 074°02'0 0.0
2017-Nov-18 18:29N 40°40' W 074°02'0 0.0
2017-Nov-18 17:59N 40°40' W 074°02'0 0.1
2017-Nov-18 17:29N 40°40' W 074°02'0 0.2
2017-Nov-18 16:59N 40°40' W 074°02'0 0.3
2017-Nov-18 16:29N 40°40' W 074°02'0 0.2
2017-Nov-18 15:59N 40°40' W 074°02'0 0.0
2017-Nov-18 15:29N 40°40' W 074°02'0 0.1
2017-Nov-18 14:59N 40°40' W 074°02'0 0.0
2017-Nov-18 14:29N 40°40' W 074°02'0 0.1
2017-Nov-18 13:59N 40°40' W 074°02'0 0.0
2017-Nov-18 13:29N 40°40' W 074°02'0 0.0
2017-Nov-18 12:59N 40°40' W 074°02'0 0.0
2017-Nov-18 12:29N 40°40' W 074°02'0 0.0
2017-Nov-18 11:59N 40°40' W 074°02'0 0.0
2017-Nov-18 11:29N 40°40' W 074°02'0 0.1
2017-Nov-18 10:59N 40°40' W 074°02'0 0.1
2017-Nov-18 10:29N 40°40' W 074°02'0 0.3
2017-Nov-18 09:59N 40°40' W 074°02'0 0.1
2017-Nov-18 09:29N 40°40' W 074°02'0 0.0
2017-Nov-18 08:59N 40°40' W 074°02'0 0.1
2017-Nov-18 08:29N 40°40' W 074°02'0 0.1
2017-Nov-18 07:59N 40°40' W 074°02'0 0.0
2017-Nov-18 07:29N 40°40' W 074°02'0 0.0
2017-Nov-18 06:59N 40°40' W 074°02'0 0.0
2017-Nov-18 06:29N 40°40' W 074°02'0 0.0
2017-Nov-18 05:59N 40°40' W 074°02'0 0.0
2017-Nov-18 05:29N 40°40' W 074°02'0 0.1
2017-Nov-18 04:59N 40°40' W 074°02'0 0.1
2017-Nov-18 04:29N 40°40' W 074°02'0 0.0
2017-Nov-18 03:59N 40°40' W 074°02'0 0.2
2017-Nov-18 03:29N 40°40' W 074°02'0 0.1
2017-Nov-18 02:59N 40°40' W 074°02'0 0.1
2017-Nov-18 02:29N 40°40' W 074°02'0 0.1
2017-Nov-18 01:59N 40°40' W 074°02'0 0.0
2017-Nov-18 01:29N 40°40' W 074°02'0 0.0
2017-Nov-18 00:59N 40°40' W 074°02'0 0.1
2017-Nov-18 00:29N 40°40' W 074°02'0 0.0
2017-Nov-17 23:59N 40°40' W 074°02'0 0.1
2017-Nov-17 23:29N 40°40' W 074°02'0 0.0
2017-Nov-17 22:59N 40°40' W 074°02'0 0.2
2017-Nov-17 22:29N 40°40' W 074°02'0 0.1
2017-Nov-17 21:59N 40°40' W 074°02'0 0.0
2017-Nov-17 21:29N 40°40' W 074°02'0 0.0
2017-Nov-17 20:59N 40°40' W 074°02'0 0.0
2017-Nov-17 20:29N 40°40' W 074°02'0 0.1
2017-Nov-17 19:59N 40°40' W 074°02'0 0.0
2017-Nov-17 19:29N 40°40' W 074°02'0 0.0
2017-Nov-17 18:59N 40°40' W 074°02'0 0.0
2017-Nov-17 18:29N 40°40' W 074°02'0 0.0
2017-Nov-17 17:59N 40°40' W 074°02'0 0.0
2017-Nov-17 17:29N 40°40' W 074°02'0 0.0
2017-Nov-17 16:59N 40°40' W 074°02'0 0.0
2017-Nov-17 16:29N 40°40' W 074°02'0 0.0
2017-Nov-17 15:59N 40°40' W 074°02'0 0.1
2017-Nov-17 15:29N 40°40' W 074°02'0 0.0
2017-Nov-17 14:59N 40°40' W 074°02'0 0.1
2017-Nov-17 14:29N 40°40' W 074°02'0 0.1
2017-Nov-17 13:59N 40°40' W 074°02'0 0.0
2017-Nov-17 13:29N 40°40' W 074°02'0 0.0
2017-Nov-17 12:59N 40°40' W 074°02'0 0.1
2017-Nov-17 12:29N 40°40' W 074°02'0 0.0
2017-Nov-17 11:59N 40°40' W 074°02'0 0.1
2017-Nov-17 11:29N 40°40' W 074°02'0 0.1
2017-Nov-17 10:59N 40°40' W 074°02'0 0.1
2017-Nov-17 10:30N 40°40' W 074°02'0 0.0
2017-Nov-17 10:00N 40°40' W 074°02'0 0.1
2017-Nov-17 09:30N 40°40' W 074°02'0 0.0
2017-Nov-17 09:00N 40°40' W 074°02'0 0.1
2017-Nov-17 08:30N 40°40' W 074°02'0 0.0
2017-Nov-17 08:00N 40°40' W 074°02'0 0.1
2017-Nov-17 07:30N 40°40' W 074°02'0 0.0
2017-Nov-17 07:00N 40°40' W 074°02'0 0.1
2017-Nov-17 06:30N 40°40' W 074°02'1 1.5
2017-Nov-17 06:00N 40°41' W 074°02'5 9.3
2017-Nov-17 05:30N 40°44' W 073°58'510.3
2017-Nov-17 05:00N 40°48' W 073°53'5 9.6
2017-Nov-17 04:30N 40°48' W 073°47'5 9.4
2017-Nov-17 03:58N 40°53' W 073°44'1 0.0
2017-Nov-15 20:02N 40°52' W 073°44'1 9.2
2017-Nov-15 19:56N 40°51' W 073°45'4 8.6
2017-Nov-15 19:30N 40°48' W 073°47'5 8.8
2017-Nov-15 18:59N 40°48' W 073°53'3 7.1
2017-Nov-15 18:30N 40°46' W 073°57'3 6.9
2017-Nov-15 18:00N 40°43' W 073°58'3 6.3
2017-Nov-15 17:30N 40°41' W 074°01'3 6.3
2017-Nov-15 17:00N 40°39' W 074°05'1 2.4
2017-Nov-15 16:29N 40°39' W 074°07'1 2.0
2017-Nov-15 15:59N 40°38' W 074°08'1 1.9
2017-Nov-15 15:29N 40°39' W 074°07'0 0.0
2017-Nov-15 14:59N 40°39' W 074°07'0 0.0
2017-Nov-15 14:26N 40°39' W 074°07'0 0.0
2017-Nov-15 13:59N 40°39' W 074°07'0 0.0
2017-Nov-15 13:29N 40°39' W 074°07'0 0.0
2017-Nov-15 12:59N 40°39' W 074°07'0 0.0
2017-Nov-15 12:29N 40°39' W 074°07'0 0.0
2017-Nov-15 11:59N 40°39' W 074°07'0 0.0
2017-Nov-15 11:29N 40°39' W 074°07'0 0.0
2017-Nov-15 10:59N 40°39' W 074°07'0 0.0
2017-Nov-15 10:29N 40°39' W 074°07'0 0.0
2017-Nov-15 09:59N 40°39' W 074°07'0 0.0
2017-Nov-15 09:26N 40°39' W 074°07'0 0.0
2017-Nov-15 08:59N 40°39' W 074°07'0 0.0
2017-Nov-15 08:29N 40°39' W 074°07'0 0.0
2017-Nov-15 07:59N 40°39' W 074°07'0 0.0
2017-Nov-15 07:29N 40°39' W 074°07'0 0.0
2017-Nov-15 06:59N 40°39' W 074°07'0 0.0
2017-Nov-15 06:29N 40°39' W 074°07'0 0.0
2017-Nov-15 05:59N 40°39' W 074°07'0 0.0
2017-Nov-15 05:29N 40°39' W 074°07'0 0.0
2017-Nov-15 04:59N 40°39' W 074°07'0 0.0
2017-Nov-15 04:29N 40°39' W 074°07'0 0.0
2017-Nov-15 03:59N 40°39' W 074°07'0 0.0
2017-Nov-15 03:29N 40°39' W 074°07'0 0.0
2017-Nov-15 02:59N 40°39' W 074°07'0 0.0
2017-Nov-15 02:29N 40°39' W 074°07'0 0.0
2017-Nov-15 01:59N 40°39' W 074°07'0 0.0
2017-Nov-15 01:26N 40°39' W 074°07'0 0.0
2017-Nov-15 00:59N 40°39' W 074°07'0 0.1
2017-Nov-15 00:29N 40°39' W 074°07'0 0.0
2017-Nov-14 23:59N 40°39' W 074°07'0 0.1
2017-Nov-14 23:17N 40°39' W 074°07'0 0.0
2017-Nov-14 22:59N 40°39' W 074°07'0 0.0
2017-Nov-14 22:23N 40°39' W 074°07'0 0.0
2017-Nov-14 21:56N 40°39' W 074°07'0 0.0
2017-Nov-14 21:29N 40°39' W 074°07'0 0.0
2017-Nov-14 20:56N 40°39' W 074°07'1 2.2
2017-Nov-14 20:28N 40°38' W 074°08'0 0.0
2017-Nov-14 19:59N 40°38' W 074°08'0 0.0
2017-Nov-14 19:30N 40°38' W 074°08'0 0.0
2017-Nov-14 19:00N 40°38' W 074°08'0 0.0
2017-Nov-14 18:30N 40°38' W 074°08'0 0.0
2017-Nov-14 17:59N 40°38' W 074°08'0 0.0
2017-Nov-14 17:30N 40°38' W 074°08'0 0.0
2017-Nov-14 17:00N 40°38' W 074°08'1 2.0
2017-Nov-14 16:30N 40°39' W 074°07'1 2.0
2017-Nov-14 16:00N 40°39' W 074°05'2 3.3
2017-Nov-14 15:30N 40°38' W 074°03'1 1.5
2017-Nov-14 15:00N 40°39' W 074°02'2 4.8
2017-Nov-14 14:30N 40°41' W 074°01'510.1
2017-Nov-14 14:00N 40°45' W 073°58'5 9.5
2017-Nov-14 13:30N 40°48' W 073°52'4 8.9
2017-Nov-14 13:00N 40°49' W 073°47'5 9.6
2017-Nov-14 12:26N 40°53' W 073°43'  

Dump ship's entire track history